Time;durP1;ratioP1;P1;durP2;ratioP2;P2;SDS_P1;SDS_P2;PMS_P1;PMS_P2;Temp;Humidity;BMP_temperature;BMP_pressure;BME280_temperature;BME280_humidity;BME280_pressure;Samples;Min_cycle;Max_cycle;Signal;HPM_P1;HPM_P2
2021/10/09 00:01:10;;;;;;;11.63;7.18;;;;;;;14.62;64.95;99160.06;5050664;28;20112;-51
2021/10/09 00:03:35;;;;;;;13.50;7.70;;;;;;;14.65;64.99;99160.47;5052357;28;20021;-51
2021/10/09 00:06:01;;;;;;;21.70;10.25;;;;;;;14.72;64.94;99157.75;5051972;28;20043;-51
2021/10/09 00:08:30;;;;;;;19.35;8.55;;;;;;;14.84;64.89;99158.66;5051999;28;20021;-51
2021/10/09 00:10:56;;;;;;;10.70;8.38;;;;;;;14.83;64.53;99150.97;5051888;28;20094;-51
2021/10/09 00:13:23;;;;;;;10.73;8.88;;;;;;;14.76;64.80;99158.94;5050021;28;20029;-51
2021/10/09 00:15:49;;;;;;;10.85;8.13;;;;;;;14.68;64.87;99154.72;5050489;28;20057;-51
2021/10/09 00:18:15;;;;;;;12.27;8.07;;;;;;;14.69;64.84;99150.25;5051812;28;20056;-51
2021/10/09 00:20:40;;;;;;;11.18;7.75;;;;;;;14.68;64.72;99153.94;5050413;28;20471;-51
2021/10/09 00:23:06;;;;;;;10.07;7.30;;;;;;;14.67;65.13;99149.66;5050444;28;20041;-51
2021/10/09 00:25:33;;;;;;;12.73;7.10;;;;;;;14.80;64.91;99160.13;5051792;28;20418;-51
2021/10/09 00:27:59;;;;;;;10.90;7.60;;;;;;;14.90;64.66;99146.44;5051720;28;20024;-51
2021/10/09 00:30:25;;;;;;;15.43;8.90;;;;;;;14.88;64.21;99144.00;5051397;28;20072;-51
2021/10/09 00:32:51;;;;;;;12.82;7.75;;;;;;;14.91;64.53;99132.19;5050351;28;20064;-51
2021/10/09 00:35:17;;;;;;;11.40;8.10;;;;;;;14.93;64.45;99136.25;5051650;28;20016;-51
2021/10/09 00:37:42;;;;;;;15.50;8.02;;;;;;;14.91;64.59;99137.47;5050277;28;20028;-52
2021/10/09 00:40:09;;;;;;;12.93;7.78;;;;;;;14.88;64.52;99144.00;5051585;28;20025;-51
2021/10/09 00:42:34;;;;;;;9.82;7.72;;;;;;;14.85;64.57;99143.63;5051544;28;20070;-50
2021/10/09 00:45:00;;;;;;;9.77;7.05;;;;;;;14.89;64.74;99139.50;5051483;28;20103;-51
2021/10/09 00:47:26;;;;;;;10.02;7.55;;;;;;;14.94;64.33;99145.78;5051536;28;20017;-51
2021/10/09 00:49:52;;;;;;;19.63;8.10;;;;;;;14.98;64.59;99141.66;5051783;28;20487;-51
2021/10/09 00:52:19;;;;;;;9.13;7.45;;;;;;;15.10;64.17;99141.75;5050158;28;20039;-52
2021/10/09 00:54:47;;;;;;;10.05;7.50;;;;;;;15.15;63.87;99130.53;5051479;28;20021;-51
2021/10/09 00:57:18;;;;;;;11.57;9.13;;;;;;;15.15;63.85;99133.16;5050109;28;20025;-51
2021/10/09 00:59:48;;;;;;;8.45;7.03;;;;;;;15.12;63.86;99133.63;5051469;28;20439;-51
2021/10/09 01:02:14;;;;;;;8.60;7.22;;;;;;;15.10;63.85;99140.97;5051251;28;20025;-51
2021/10/09 01:04:41;;;;;;;27.52;22.70;;;;;;;15.11;63.90;99139.91;5051394;28;20453;-50
2021/10/09 01:07:07;;;;;;;11.27;9.55;;;;;;;15.07;63.87;99142.22;5050018;28;20120;-51
2021/10/09 01:09:33;;;;;;;12.50;8.82;;;;;;;15.10;64.19;99136.47;5050038;28;20544;-51
2021/10/09 01:12:00;;;;;;;12.50;9.65;;;;;;;15.21;64.10;99134.94;5049929;28;20128;-51
2021/10/09 01:14:26;;;;;;;13.68;8.48;;;;;;;15.30;63.66;99140.75;5051320;28;20017;-50
2021/10/09 01:16:52;;;;;;;14.15;8.77;;;;;;;15.22;63.52;99133.13;5049835;28;20040;-51
2021/10/09 01:19:18;;;;;;;13.15;11.77;;;;;;;15.12;63.67;99134.44;5049914;28;20025;-51
2021/10/09 01:21:49;;;;;;;9.50;8.43;;;;;;;15.02;63.70;99126.19;5051135;28;20029;-52
2021/10/09 01:24:16;;;;;;;16.65;10.27;;;;;;;14.90;64.13;99130.56;5052479;28;20140;-52
2021/10/09 01:26:42;;;;;;;13.23;9.73;;;;;;;14.93;64.15;99123.03;5053613;28;20060;-51
2021/10/09 01:29:10;;;;;;;13.23;10.10;;;;;;;14.92;63.98;99123.25;5053537;28;20114;-51
2021/10/09 01:31:36;;;;;;;13.38;10.10;;;;;;;14.69;64.03;99134.41;5053303;28;20461;-51
2021/10/09 01:34:02;;;;;;;12.00;10.80;;;;;;;14.49;64.54;99126.63;5053547;28;20063;-51
2021/10/09 01:36:33;;;;;;;11.50;9.80;;;;;;;14.45;64.99;99134.16;5053438;28;20507;-51
2021/10/09 01:39:00;;;;;;;12.65;10.73;;;;;;;14.49;65.14;99134.56;5054839;28;20449;-51
2021/10/09 01:41:26;;;;;;;13.80;9.82;;;;;;;14.62;65.19;99134.47;5054623;28;20025;-51
2021/10/09 01:43:53;;;;;;;12.15;10.43;;;;;;;14.83;64.49;99128.00;5054645;28;20055;-51
2021/10/09 01:46:19;;;;;;;10.60;9.57;;;;;;;14.81;64.30;99132.69;5054599;28;20025;-51
2021/10/09 01:48:45;;;;;;;13.82;10.60;;;;;;;14.82;64.52;99129.00;5053305;28;20104;-51
2021/10/09 01:51:12;;;;;;;12.32;10.27;;;;;;;14.87;64.32;99129.19;5054493;28;20032;-51
2021/10/09 01:53:42;;;;;;;38.42;34.67;;;;;;;14.93;64.24;99132.78;5053141;28;20116;-52
2021/10/09 01:56:09;;;;;;;32.33;28.63;;;;;;;14.89;64.27;99128.94;5053115;28;20036;-51
2021/10/09 01:58:35;;;;;;;18.92;16.90;;;;;;;14.88;64.25;99128.16;5054414;28;20091;-51
2021/10/09 02:01:01;;;;;;;15.50;13.52;;;;;;;14.86;64.33;99132.84;5054261;28;20036;-51
2021/10/09 02:03:26;;;;;;;13.65;12.07;;;;;;;14.80;64.28;99131.06;5052952;28;20021;-51
2021/10/09 02:05:52;;;;;;;15.77;11.07;;;;;;;14.75;64.42;99139.66;5054230;28;20029;-51
2021/10/09 02:08:18;;;;;;;14.48;11.15;;;;;;;14.68;64.50;99128.31;5054460;28;20032;-51
2021/10/09 02:11:01;;;;;;;12.63;11.02;;;;;;;14.57;64.73;99132.47;5054131;28;20021;-51
2021/10/09 02:13:40;;;;;;;11.48;9.48;;;;;;;14.54;65.13;99126.78;5052822;28;20039;-51
2021/10/09 02:26:40;;;;;;;10.02;9.00;;;;;;;14.81;64.31;99126.59;5053902;28;20040;-52
2021/10/09 02:29:05;;;;;;;14.10;10.18;;;;;;;14.84;64.24;99128.81;5052495;28;20029;-51
2021/10/09 02:31:31;;;;;;;23.77;10.82;;;;;;;14.76;64.67;99133.31;5052181;28;20071;-51
2021/10/09 02:33:57;;;;;;;13.45;10.90;;;;;;;14.78;64.87;99128.63;5053761;28;20067;-51
2021/10/09 02:36:23;;;;;;;11.43;9.85;;;;;;;14.80;64.63;99136.34;5051848;28;20033;-51
2021/10/09 02:38:49;;;;;;;12.05;10.93;;;;;;;14.82;64.72;99134.28;5053916;28;20021;-51
2021/10/09 02:41:14;;;;;;;14.15;11.13;;;;;;;14.77;64.79;99127.03;5053517;28;20384;-50
2021/10/09 02:43:40;;;;;;;20.05;10.68;;;;;;;14.80;64.94;99130.25;5053629;28;20407;-51
2021/10/09 02:46:06;;;;;;;12.00;10.10;;;;;;;14.91;64.62;99127.72;5053451;28;20380;-51
2021/10/09 02:48:32;;;;;;;15.57;10.45;;;;;;;14.97;64.21;99126.06;5053446;28;20037;-51
2021/10/09 02:50:58;;;;;;;13.98;10.93;;;;;;;14.98;64.15;99131.09;5053358;28;20017;-51
2021/10/09 02:53:24;;;;;;;11.85;10.30;;;;;;;14.91;64.49;99132.19;5052027;28;20037;-51
2021/10/09 02:55:49;;;;;;;16.55;11.32;;;;;;;14.91;64.31;99133.00;5051935;28;20110;-51
2021/10/09 02:58:15;;;;;;;12.30;11.00;;;;;;;14.84;64.51;99129.59;5053302;28;20017;-52
2021/10/09 03:00:41;;;;;;;16.60;10.70;;;;;;;14.81;64.34;99132.69;5051811;28;20029;-52
2021/10/09 03:03:07;;;;;;;14.35;11.25;;;;;;;14.84;64.74;99139.38;5053115;28;20017;-51
2021/10/09 03:05:32;;;;;;;13.77;9.68;;;;;;;14.88;64.55;99138.72;5053126;28;20021;-51
2021/10/09 03:07:58;;;;;;;18.48;12.05;;;;;;;14.88;64.49;99136.06;5051755;28;20037;-51
2021/10/09 03:10:24;;;;;;;12.65;11.02;;;;;;;14.83;64.41;99130.66;5052999;28;20376;-52
2021/10/09 03:12:50;;;;;;;14.27;10.90;;;;;;;14.77;64.46;99140.25;5052952;28;20021;-51
2021/10/09 03:15:15;;;;;;;12.48;10.57;;;;;;;14.76;64.70;99135.16;5052800;28;20025;-51
2021/10/09 03:17:41;;;;;;;14.68;10.43;;;;;;;14.73;65.09;99140.91;5052928;28;20025;-51
2021/10/09 03:20:10;;;;;;;17.60;11.82;;;;;;;14.73;65.05;99143.53;5053143;28;20025;-51
2021/10/09 03:22:36;;;;;;;13.18;10.80;;;;;;;14.77;64.85;99147.38;5052770;28;20048;-51
2021/10/09 03:25:02;;;;;;;14.30;11.52;;;;;;;14.81;64.45;99143.25;5052722;28;20102;-51
2021/10/09 03:27:28;;;;;;;22.13;11.18;;;;;;;14.74;64.61;99142.50;5051418;28;20464;-51
2021/10/09 03:29:54;;;;;;;15.73;11.68;;;;;;;14.62;64.89;99139.75;5050669;28;20082;-51
2021/10/09 03:32:19;;;;;;;15.07;13.43;;;;;;;14.49;65.11;99143.28;5052639;28;20033;-51
2021/10/09 03:34:45;;;;;;;15.43;11.50;;;;;;;14.48;65.40;99149.56;5051292;28;20047;-51
2021/10/09 03:37:11;;;;;;;14.52;11.07;;;;;;;14.57;65.36;99142.25;5051192;28;20078;-52
2021/10/09 03:39:40;;;;;;;13.13;11.25;;;;;;;14.68;65.22;99144.16;5051147;28;20017;-51
2021/10/09 03:42:13;;;;;;;13.20;10.63;;;;;;;14.79;64.84;99137.38;5052355;28;20063;-51
2021/10/09 03:44:47;;;;;;;13.27;11.25;;;;;;;14.81;64.55;99135.34;5052458;28;20021;-51
2021/10/09 03:49:46;;;;;;;11.30;10.13;;;;;;;14.72;65.13;99137.44;5052585;28;20491;-51
2021/10/09 03:55:11;;;;;;;18.15;12.30;;;;;;;14.68;65.18;99135.44;5047285;28;20103;-51
2021/10/09 03:57:37;;;;;;;12.15;10.48;;;;;;;14.70;65.19;99134.19;5052187;28;20052;-51
2021/10/09 04:00:05;;;;;;;12.75;10.93;;;;;;;14.77;65.23;99136.78;5052074;28;20070;-51
2021/10/09 04:02:31;;;;;;;17.95;11.50;;;;;;;14.71;65.04;99137.66;5050704;28;20021;-51
2021/10/09 04:04:57;;;;;;;12.63;11.18;;;;;;;14.63;65.56;99132.63;5050766;28;20021;-51
2021/10/09 04:07:23;;;;;;;13.10;11.07;;;;;;;14.75;65.56;99129.09;5051979;28;20025;-51
2021/10/09 04:09:49;;;;;;;12.60;11.38;;;;;;;14.82;64.88;99129.00;5051955;28;20539;-52
2021/10/09 04:12:15;;;;;;;18.90;12.30;;;;;;;14.74;65.16;99135.38;5050630;28;20494;-51
2021/10/09 04:14:40;;;;;;;13.27;11.35;;;;;;;14.72;65.10;99137.44;5050552;28;20104;-51
2021/10/09 04:17:07;;;;;;;14.75;11.55;;;;;;;14.77;65.10;99131.50;5050530;28;20032;-51
2021/10/09 04:19:33;;;;;;;15.32;12.70;;;;;;;14.75;65.06;99134.38;5051836;28;20021;-52
2021/10/09 04:21:59;;;;;;;14.20;12.52;;;;;;;14.73;65.42;99136.41;5051697;28;20107;-51
2021/10/09 04:24:25;;;;;;;15.18;12.15;;;;;;;14.73;65.51;99131.13;5051756;28;20025;-51
2021/10/09 04:26:51;;;;;;;15.77;12.48;;;;;;;14.77;65.34;99132.31;5051702;28;20025;-51
2021/10/09 04:29:17;;;;;;;20.10;17.98;;;;;;;14.76;65.48;99128.03;5051732;28;20024;-50
2021/10/09 04:31:43;;;;;;;15.07;12.15;;;;;;;14.69;65.51;99127.31;5051450;28;20070;-51
2021/10/09 04:34:09;;;;;;;17.60;11.98;;;;;;;14.64;65.73;99131.63;5050351;28;20056;-52
2021/10/09 04:36:34;;;;;;;17.90;11.48;;;;;;;14.52;65.98;99132.25;5050303;28;20552;-51
2021/10/09 04:39:00;;;;;;;18.58;12.10;;;;;;;14.55;66.10;99125.75;5051620;28;20483;-51
2021/10/09 04:41:26;;;;;;;13.15;11.50;;;;;;;14.62;66.06;99125.75;5051528;28;20067;-51
2021/10/09 04:43:52;;;;;;;21.52;13.27;;;;;;;14.61;66.07;99132.03;5051557;28;20082;-51
2021/10/09 04:46:17;;;;;;;19.13;12.55;;;;;;;14.52;66.24;99129.63;5050242;28;20025;-51
2021/10/09 04:48:43;;;;;;;17.50;12.05;;;;;;;14.63;66.44;99125.53;5051566;28;20025;-51
2021/10/09 04:51:09;;;;;;;14.63;11.45;;;;;;;14.82;65.83;99123.72;5051503;28;20489;-51
2021/10/09 04:53:35;;;;;;;13.00;11.40;;;;;;;14.89;65.58;99123.66;5051466;28;20087;-51
2021/10/09 04:56:00;;;;;;;14.00;11.20;;;;;;;14.94;65.37;99123.84;5050167;28;20029;-51
2021/10/09 04:58:26;;;;;;;16.58;11.38;;;;;;;14.97;65.28;99126.84;5052880;28;20490;-51
2021/10/09 05:00:52;;;;;;;16.08;12.50;;;;;;;14.86;65.01;99130.19;5055304;28;20021;-52
2021/10/09 05:03:18;;;;;;;22.65;13.00;;;;;;;14.63;66.09;99133.44;5055458;28;20483;-51
2021/10/09 05:05:44;;;;;;;18.33;12.98;;;;;;;14.52;66.30;99129.63;5055341;28;20078;-51
2021/10/09 05:08:10;;;;;;;21.35;12.82;;;;;;;14.49;66.57;99130.06;5054033;28;20029;-51
2021/10/09 05:10:38;;;;;;;20.63;13.50;;;;;;;14.41;66.47;99135.63;5055261;28;20025;-51
2021/10/09 05:13:04;;;;;;;39.08;35.42;;;;;;;14.23;66.97;99130.25;5055219;28;20021;-52
2021/10/09 05:15:30;;;;;;;16.52;14.70;;;;;;;14.03;67.64;99140.94;5053842;28;20514;-51
2021/10/09 05:17:56;;;;;;;24.58;14.40;;;;;;;13.95;68.22;99134.06;5055127;28;20021;-51
2021/10/09 05:20:22;;;;;;;17.52;13.15;;;;;;;14.10;68.12;99141.69;5055127;28;20122;-51
2021/10/09 05:22:48;;;;;;;19.77;14.85;;;;;;;14.30;67.79;99138.94;5053691;28;20095;-51
2021/10/09 05:25:13;;;;;;;17.02;14.68;;;;;;;14.50;67.35;99131.66;5055050;28;20096;-51
2021/10/09 05:27:44;;;;;;;19.00;16.95;;;;;;;14.48;66.67;99138.19;5055033;28;20083;-51
2021/10/09 05:30:12;;;;;;;21.42;15.85;;;;;;;14.10;67.86;99139.06;5054778;28;20049;-52
2021/10/09 05:32:47;;;;;;;18.52;15.07;;;;;;;14.14;68.16;99142.88;5054939;28;20032;-51
2021/10/09 05:35:13;;;;;;;17.90;15.82;;;;;;;14.34;67.59;99140.13;5054827;28;20039;-51
2021/10/09 05:37:40;;;;;;;21.83;17.10;;;;;;;14.53;67.24;99143.66;5054803;28;20096;-51
2021/10/09 05:40:07;;;;;;;22.75;16.52;;;;;;;14.44;67.14;99142.28;5054737;28;20025;-51
2021/10/09 05:42:32;;;;;;;32.78;28.75;;;;;;;14.46;67.18;99138.41;5054495;28;20028;-51
2021/10/09 05:44:58;;;;;;;23.27;18.00;;;;;;;14.62;66.95;99145.03;5053374;28;20028;-51
2021/10/09 05:47:30;;;;;;;25.88;18.50;;;;;;;14.79;66.32;99150.59;5054634;28;20047;-51
2021/10/09 05:49:57;;;;;;;21.15;16.58;;;;;;;14.90;65.89;99155.16;5054549;28;20044;-51
2021/10/09 05:52:35;;;;;;;22.63;17.30;;;;;;;15.00;65.31;99149.38;5054488;28;20388;-51
2021/10/09 06:42:06;;;;;;;31.05;22.52;;;;;;;14.81;66.08;99188.19;5053996;28;20471;-51
2021/10/09 06:44:15;;;;;;;29.75;21.45;;;;;;;14.84;66.03;99195.66;5053611;28;20518;-51
2021/10/09 06:46:54;;;;;;;27.83;22.65;;;;;;;14.81;65.86;99204.03;5053316;28;20147;-51
2021/10/09 06:59:58;;;;;;;35.35;26.30;;;;;;;15.15;65.45;99208.03;5053273;28;20031;-51
2021/10/09 07:02:24;;;;;;;36.88;28.25;;;;;;;15.20;64.93;99206.56;5053137;28;20112;-51
2021/10/09 07:04:50;;;;;;;35.30;26.00;;;;;;;15.02;65.16;99208.13;5051794;28;20021;-51
2021/10/09 07:07:20;;;;;;;38.65;26.77;;;;;;;14.90;65.69;99208.03;5051793;28;20063;-51
2021/10/09 07:09:46;;;;;;;39.30;26.98;;;;;;;15.02;65.54;99215.25;5053019;28;20021;-51
2021/10/09 07:12:11;;;;;;;30.77;24.42;;;;;;;15.13;65.30;99206.59;5053068;28;20029;-51
2021/10/09 07:14:37;;;;;;;36.03;24.33;;;;;;;15.23;65.33;99216.69;5052969;28;20037;-52
2021/10/09 07:17:03;;;;;;;33.13;23.13;;;;;;;15.45;65.01;99211.81;5051604;28;20082;-52
2021/10/09 07:19:29;;;;;;;32.00;23.80;;;;;;;15.62;64.13;99204.13;5051562;28;20112;-51
2021/10/09 07:21:55;;;;;;;33.70;24.83;;;;;;;15.63;63.69;99213.66;5052712;28;20070;-51
2021/10/09 07:24:21;;;;;;;31.70;25.08;;;;;;;15.51;63.92;99209.13;5051553;28;20475;-51
2021/10/09 07:26:47;;;;;;;30.77;24.08;;;;;;;15.38;64.43;99207.41;5053045;28;20024;-51
2021/10/09 07:29:12;;;;;;;29.42;22.60;;;;;;;15.58;64.12;99206.38;5051404;28;20511;-51
2021/10/09 07:31:39;;;;;;;38.40;33.60;;;;;;;15.71;63.64;99211.53;5051097;28;20159;-52
2021/10/09 07:34:05;;;;;;;31.30;21.52;;;;;;;15.80;63.45;99213.94;5052606;28;20518;-51
2021/10/09 07:36:30;;;;;;;27.02;19.60;;;;;;;16.07;62.69;99209.09;5052565;28;20021;-51
2021/10/09 07:38:56;;;;;;;26.02;20.98;;;;;;;16.31;61.72;99208.16;5051226;28;20033;-52
2021/10/09 07:41:22;;;;;;;24.58;19.20;;;;;;;16.51;61.21;99215.03;5052353;28;20106;-51
2021/10/09 07:43:48;;;;;;;27.75;20.13;;;;;;;16.39;60.69;99217.66;5052428;28;20100;-51
2021/10/09 07:46:13;;;;;;;28.60;18.95;;;;;;;16.15;61.40;99219.38;5052368;28;20021;-51
2021/10/09 07:48:39;;;;;;;116.53;102.93;;;;;;;16.17;61.58;99228.72;5052286;28;20116;-51
2021/10/09 07:51:06;;;;;;;43.80;39.55;;;;;;;15.84;61.67;99233.63;5052315;28;20025;-52
2021/10/09 07:53:32;;;;;;;29.15;26.08;;;;;;;15.63;62.18;99237.47;5052236;28;20025;-52
2021/10/09 07:55:57;;;;;;;30.95;24.65;;;;;;;15.63;62.65;99240.91;5052170;28;20031;-51
2021/10/09 07:58:23;;;;;;;27.02;20.88;;;;;;;15.67;62.50;99246.59;5052228;28;20421;-52
2021/10/09 08:00:49;;;;;;;31.80;19.77;;;;;;;15.79;62.39;99244.84;5051978;28;20555;-51
2021/10/09 08:03:15;;;;;;;28.15;20.27;;;;;;;15.79;62.33;99242.22;5052102;28;20039;-51
2021/10/09 08:05:41;;;;;;;25.33;20.80;;;;;;;15.91;62.21;99247.59;5052055;28;20074;-52
2021/10/09 08:08:06;;;;;;;27.08;18.48;;;;;;;16.06;61.88;99248.03;5050688;28;20029;-52
2021/10/09 08:10:32;;;;;;;20.85;18.60;;;;;;;16.32;61.43;99248.72;5050697;28;20503;-52
2021/10/09 08:12:58;;;;;;;23.80;18.17;;;;;;;16.66;60.50;99243.75;5050652;28;20086;-52
2021/10/09 08:15:24;;;;;;;21.48;13.98;;;;;;;16.96;59.57;99260.47;5051875;28;20399;-52
2021/10/09 08:17:50;;;;;;;21.23;16.13;;;;;;;17.24;58.75;99251.03;5050511;28;20112;-51
2021/10/09 08:20:16;;;;;;;19.27;15.85;;;;;;;17.55;57.86;99251.75;5051857;28;20032;-51
2021/10/09 08:22:55;;;;;;;20.00;17.30;;;;;;;17.77;56.92;99250.13;5051752;28;20086;-52
2021/10/09 08:26:16;;;;;;;18.88;16.65;;;;;;;17.67;56.78;99255.22;5051813;28;20025;-51
2021/10/09 08:35:24;;;;;;;44.17;37.95;;;;;;;17.29;57.33;99258.34;5048570;28;20048;-51
2021/10/09 08:36:34;;;;;;;21.20;16.98;;;;;;;17.56;57.27;99253.34;5051808;28;20521;-51
2021/10/09 08:39:00;;;;;;;18.67;16.02;;;;;;;17.80;56.60;99256.78;5051642;28;20036;-51
2021/10/09 08:41:29;;;;;;;20.70;16.45;;;;;;;18.00;56.00;99258.31;5051545;28;20100;-51
2021/10/09 08:43:55;;;;;;;20.63;17.48;;;;;;;18.06;55.54;99260.81;5051620;28;20032;-51
2021/10/09 08:46:22;;;;;;;20.08;15.48;;;;;;;17.97;55.69;99262.25;5050280;28;20025;-50
2021/10/09 08:48:51;;;;;;;25.33;16.65;;;;;;;17.87;55.63;99268.13;5051541;28;20518;-52
2021/10/09 08:51:25;;;;;;;20.85;15.20;;;;;;;17.87;55.95;99260.19;5050224;28;20025;-51
2021/10/09 08:53:53;;;;;;;23.58;18.25;;;;;;;17.96;55.51;99268.56;5051547;28;20040;-52
2021/10/09 08:56:34;;;;;;;25.98;17.10;;;;;;;17.53;55.98;99270.56;5051470;28;20094;-51
2021/10/09 08:59:20;;;;;;;19.75;17.70;;;;;;;17.50;56.34;99265.69;5050156;28;20033;-51
2021/10/09 09:02:04;;;;;;;20.60;17.08;;;;;;;17.37;56.69;99269.41;5051391;28;20017;-52
2021/10/09 09:04:49;;;;;;;20.52;16.15;;;;;;;17.55;56.54;99270.34;5051452;28;20025;-51
2021/10/09 09:27:26;;;;;;;18.60;16.70;;;;;;;24.93;40.17;99245.66;5051508;28;20036;-50
2021/10/09 09:40:38;;;;;;;23.02;15.82;;;;;;;24.56;39.82;99256.97;5029890;28;20042;-50
2021/10/09 09:43:05;;;;;;;24.98;16.38;;;;;;;24.65;39.76;99261.47;5031098;28;20026;-50
2021/10/09 09:45:31;;;;;;;20.83;15.32;;;;;;;24.62;39.41;99258.53;5031179;28;20037;-50
2021/10/09 09:48:00;;;;;;;19.65;15.52;;;;;;;24.30;40.09;99247.13;5034716;28;20099;-50
2021/10/09 09:50:27;;;;;;;17.08;15.35;;;;;;;24.13;40.22;99244.81;5034592;28;20147;-50
2021/10/09 09:52:54;;;;;;;17.30;15.50;;;;;;;23.85;39.89;99251.66;5034631;28;20044;-50
2021/10/09 09:55:21;;;;;;;17.45;15.10;;;;;;;24.10;40.75;99256.09;5033305;28;20108;-50
2021/10/09 09:57:51;;;;;;;17.83;15.98;;;;;;;25.56;38.59;99250.22;5034558;28;20022;-50
2021/10/09 10:00:17;;;;;;;17.63;14.90;;;;;;;27.00;35.75;99245.59;5034572;28;20036;-50
2021/10/09 10:02:55;;;;;;;15.70;13.50;;;;;;;28.09;33.91;99244.13;5034329;28;20492;-50
2021/10/09 10:05:26;;;;;;;15.05;13.52;;;;;;;28.73;31.25;99240.53;5033032;28;20025;-52
2021/10/09 10:07:52;;;;;;;15.45;13.73;;;;;;;28.68;31.18;99244.16;5034417;28;20029;-52
2021/10/09 10:10:19;;;;;;;16.20;13.43;;;;;;;28.51;31.75;99243.22;5034240;28;20028;-52
2021/10/09 10:12:47;;;;;;;13.95;12.63;;;;;;;28.73;31.80;99243.22;5034322;28;20029;-49
2021/10/09 10:15:14;;;;;;;15.23;12.57;;;;;;;29.38;30.87;99246.47;5034217;28;20029;-50
2021/10/09 10:17:40;;;;;;;14.50;13.00;;;;;;;29.41;30.21;99245.88;5034168;28;20060;-50
2021/10/09 10:20:14;;;;;;;18.63;12.43;;;;;;;28.21;31.78;99251.69;5034087;28;20025;-50
2021/10/09 10:22:40;;;;;;;16.92;13.30;;;;;;;27.30;32.78;99255.06;5034062;28;20039;-52
2021/10/09 10:25:25;;;;;;;13.70;12.40;;;;;;;26.51;34.23;99259.25;5033998;28;20101;-51
2021/10/09 10:28:14;;;;;;;13.82;12.52;;;;;;;25.72;35.50;99253.53;5034019;28;20018;-52
2021/10/09 10:31:03;;;;;;;15.10;13.00;;;;;;;25.15;36.45;99247.88;5041994;28;20148;-49
2021/10/09 10:33:37;;;;;;;15.68;14.15;;;;;;;24.82;36.94;99257.56;5052491;28;20119;-50
2021/10/09 10:36:08;;;;;;;14.23;12.75;;;;;;;24.41;37.57;99249.75;5053723;28;20053;-50
2021/10/09 10:38:38;;;;;;;14.68;12.13;;;;;;;24.33;37.86;99257.31;5053661;28;20505;-50
2021/10/09 10:41:05;;;;;;;14.32;12.88;;;;;;;24.33;38.03;99265.38;5053902;28;20437;-49
2021/10/09 10:43:32;;;;;;;16.25;13.73;;;;;;;24.39;37.85;99263.47;5053594;28;20017;-49
2021/10/09 10:46:22;;;;;;;15.25;12.55;;;;;;;24.49;37.62;99258.03;5053501;28;20029;-50
2021/10/09 10:48:58;;;;;;;18.63;12.93;;;;;;;24.45;37.80;99257.00;5053541;28;20025;-50
2021/10/09 10:51:38;;;;;;;16.08;13.00;;;;;;;24.70;37.82;99263.28;5053481;28;20487;-50
2021/10/09 10:54:12;;;;;;;22.40;13.50;;;;;;;25.59;36.89;99257.69;5053473;28;20025;-50
2021/10/09 10:56:58;;;;;;;14.30;12.80;;;;;;;26.99;34.65;99252.88;5052979;28;20033;-49
2021/10/09 10:59:35;;;;;;;13.50;12.07;;;;;;;27.23;33.14;99255.47;5041715;28;20033;-50
2021/10/09 11:02:22;;;;;;;14.50;11.85;;;;;;;27.27;32.91;99255.69;5053406;28;20398;-50
2021/10/09 11:04:59;;;;;;;14.45;12.95;;;;;;;26.73;33.56;99262.47;5051948;28;20041;-50
2021/10/09 11:07:30;;;;;;;16.02;13.10;;;;;;;26.12;35.04;99264.91;5053220;28;20087;-50
2021/10/09 11:10:14;;;;;;;14.02;12.63;;;;;;;25.78;35.11;99263.13;5051802;28;20025;-50
2021/10/09 11:12:43;;;;;;;13.18;11.80;;;;;;;25.71;35.45;99251.91;5053068;28;20055;-50
2021/10/09 11:15:19;;;;;;;13.02;11.73;;;;;;;25.65;35.45;99263.81;5052953;28;20021;-50
2021/10/09 11:17:55;;;;;;;15.02;13.52;;;;;;;25.89;35.08;99261.13;5053549;28;20032;-50
2021/10/09 11:20:32;;;;;;;13.85;12.50;;;;;;;25.81;34.70;99251.00;5051624;28;20048;-49
2021/10/09 11:23:03;;;;;;;12.23;10.75;;;;;;;25.62;35.13;99253.66;5052837;28;20072;-50
2021/10/09 11:25:47;;;;;;;15.50;13.82;;;;;;;25.70;34.81;99253.03;5052831;28;20147;-50
2021/10/09 11:28:28;;;;;;;16.93;14.23;;;;;;;25.05;35.97;99253.34;5052854;28;20040;-50
2021/10/09 11:30:56;;;;;;;15.00;13.32;;;;;;;24.63;36.68;99260.94;5052414;28;20357;-50
2021/10/09 11:33:23;;;;;;;14.68;12.77;;;;;;;24.61;36.62;99257.72;5052678;28;20037;-50
2021/10/09 11:35:49;;;;;;;15.60;13.77;;;;;;;24.72;36.95;99258.44;5052878;28;20033;-50
2021/10/09 11:38:29;;;;;;;16.20;13.10;;;;;;;24.51;37.10;99255.13;5052600;28;20075;-49
2021/10/09 11:41:00;;;;;;;16.05;12.88;;;;;;;24.38;37.36;99250.31;5052590;28;20459;-49
2021/10/09 11:43:58;;;;;;;17.10;13.43;;;;;;;24.40;37.74;99251.66;5052458;28;20051;-50
2021/10/09 11:47:05;;;;;;;19.33;14.10;;;;;;;24.43;38.04;99258.34;5052383;28;20142;-50
2021/10/09 11:55:14;;;;;;;20.23;14.45;;;;;;;23.86;38.88;99255.13;5052311;28;20032;-49
2021/10/09 11:57:40;;;;;;;15.23;12.48;;;;;;;24.11;38.48;99255.03;5052258;28;20395;-50
2021/10/09 12:00:25;;;;;;;17.17;14.52;;;;;;;24.39;37.85;99254.59;5052142;28;20017;-50
2021/10/09 12:02:51;;;;;;;17.10;14.00;;;;;;;24.09;38.27;99257.19;5051991;28;20029;-49
2021/10/09 12:05:17;;;;;;;16.30;14.43;;;;;;;23.67;38.88;99263.72;5050794;28;20574;-50
2021/10/09 12:07:42;;;;;;;16.38;13.15;;;;;;;23.37;39.46;99259.25;5050009;28;20037;-50
2021/10/09 12:10:19;;;;;;;17.90;13.38;;;;;;;23.24;39.74;99259.78;5050725;28;20029;-50
2021/10/09 12:13:02;;;;;;;14.93;13.05;;;;;;;23.25;40.26;99258.72;5052065;28;20029;-49
2021/10/09 12:15:28;;;;;;;15.50;12.45;;;;;;;23.65;40.10;99257.84;5051975;28;20029;-49
2021/10/09 12:18:00;;;;;;;17.02;13.32;;;;;;;24.19;39.08;99250.97;5052023;28;20040;-50
2021/10/09 12:20:27;;;;;;;16.30;14.23;;;;;;;24.57;37.94;99259.38;5051961;28;20029;-49
2021/10/09 12:22:55;;;;;;;15.10;13.20;;;;;;;24.46;37.89;99257.78;5051716;28;20518;-50
2021/10/09 12:25:25;;;;;;;17.92;14.20;;;;;;;23.62;39.27;99255.69;5051824;28;20067;-49
2021/10/09 12:27:56;;;;;;;18.02;15.13;;;;;;;23.49;39.51;99254.41;5051912;28;20167;-50
2021/10/09 12:30:34;;;;;;;17.15;11.48;;;;;;;23.57;39.61;99247.69;5050206;28;20071;-49
2021/10/09 12:33:03;;;;;;;14.95;12.90;;;;;;;24.29;38.63;99244.75;5051828;28;20021;-50
2021/10/09 12:35:33;;;;;;;12.80;11.48;;;;;;;24.63;37.62;99242.16;5050386;28;20032;-50
2021/10/09 12:38:03;;;;;;;15.45;11.90;;;;;;;24.78;37.48;99238.53;5051766;28;20021;-50
2021/10/09 12:40:39;;;;;;;17.35;12.25;;;;;;;24.60;37.35;99239.22;5051677;28;20527;-50
2021/10/09 12:43:08;;;;;;;12.77;11.38;;;;;;;24.30;38.03;99238.28;5051598;28;20055;-50
2021/10/09 12:45:34;;;;;;;13.75;12.10;;;;;;;24.22;38.17;99241.56;5051557;28;20465;-50
2021/10/09 12:48:01;;;;;;;14.82;13.07;;;;;;;23.85;38.66;99242.81;5051568;28;20022;-49
2021/10/09 12:50:33;;;;;;;12.23;10.93;;;;;;;23.57;39.52;99239.66;5050202;28;20506;-50
2021/10/09 12:52:59;;;;;;;17.73;13.15;;;;;;;23.68;39.21;99240.41;5051642;28;20025;-49
2021/10/09 12:55:27;;;;;;;14.93;10.05;;;;;;;23.56;39.33;99237.22;5051507;28;20506;-49
2021/10/09 12:57:56;;;;;;;15.38;11.95;;;;;;;23.34;39.71;99235.66;5051538;28;20507;-50
2021/10/09 13:00:25;;;;;;;14.27;12.15;;;;;;;23.37;39.92;99237.03;5051502;28;20371;-50
2021/10/09 13:02:54;;;;;;;14.02;11.75;;;;;;;23.49;39.79;99238.31;5051468;28;20025;-50
2021/10/09 13:05:21;;;;;;;14.27;12.45;;;;;;;23.80;39.19;99229.41;5050109;28;20028;-49
2021/10/09 13:07:47;;;;;;;13.07;11.73;;;;;;;23.68;39.28;99232.38;5051419;28;20399;-50
2021/10/09 13:10:13;;;;;;;13.52;12.23;;;;;;;23.41;39.57;99240.75;5051356;28;20033;-49
2021/10/09 13:12:42;;;;;;;15.75;12.70;;;;;;;22.99;40.20;99236.50;5051343;28;20533;-49
2021/10/09 13:15:08;;;;;;;14.63;12.82;;;;;;;22.63;41.35;99241.84;5051322;28;20397;-50
2021/10/09 13:17:33;;;;;;;14.45;11.80;;;;;;;22.43;41.88;99235.38;5051300;28;20094;-50
2021/10/09 13:19:59;;;;;;;11.70;10.32;;;;;;;22.45;42.05;99227.88;5053505;28;20029;-50
2021/10/09 13:22:25;;;;;;;17.17;11.40;;;;;;;22.67;41.94;99224.97;5055127;28;20013;-50